Time,TemperatureF,DewpointF,PressureIn,WindDirection,WindDirectionDegrees,WindSpeedMPH,WindSpeedGustMPH,Humidity,HourlyPrecipIn,Conditions,Clouds,dailyrainin,SoftwareType,DateUTC
2013-01-26 00:00:00,12.3,5.0,30.00,NE,53,1.0,3.0,71,0.00,,,0.00,weatherlink.com 1.10,2013-01-26 05:00:00,
2013-01-26 00:15:00,12.0,5.0,30.00,NNW,327,0.0,4.0,74,0.00,,,0.00,weatherlink.com 1.10,2013-01-26 05:15:00,
2013-01-26 00:30:00,11.8,6.0,29.99,NNE,12,0.0,1.0,77,0.00,,,0.00,weatherlink.com 1.10,2013-01-26 05:30:00,
2013-01-26 00:45:00,11.7,6.0,29.99,NNE,17,0.0,5.0,78,0.00,,,0.00,weatherlink.com 1.10,2013-01-26 05:45:00,
2013-01-26 01:00:00,11.6,6.0,29.98,NNE,17,0.0,2.0,77,0.00,,,0.00,weatherlink.com 1.10,2013-01-26 06:00:00,
2013-01-26 01:15:00,11.6,6.0,29.98,NNE,17,0.0,2.0,78,0.00,,,0.00,weatherlink.com 1.10,2013-01-26 06:15:00,
2013-01-26 01:30:00,11.5,6.0,29.98,NNW,345,0.0,2.0,78,0.00,,,0.00,weatherlink.com 1.10,2013-01-26 06:30:00,
2013-01-26 01:45:00,11.4,6.0,29.98,NNW,345,0.0,2.0,78,0.00,,,0.00,weatherlink.com 1.10,2013-01-26 06:45:00,
2013-01-26 02:00:00,11.2,6.0,29.97,NW,322,0.0,3.0,78,0.00,,,0.00,weatherlink.com 1.10,2013-01-26 07:00:00,
2013-01-26 02:15:00,11.0,5.0,29.98,North,360,2.0,4.0,77,0.00,,,0.00,weatherlink.com 1.10,2013-01-26 07:15:00,
2013-01-26 02:30:00,10.8,5.0,29.98,NNW,333,0.0,4.0,77,0.00,,,0.00,weatherlink.com 1.10,2013-01-26 07:30:00,
2013-01-26 02:45:00,10.6,5.0,29.97,NNW,328,0.0,2.0,77,0.00,,,0.00,weatherlink.com 1.10,2013-01-26 07:45:00,
2013-01-26 03:00:00,10.4,5.0,29.96,NNW,329,0.0,2.0,77,0.00,,,0.00,weatherlink.com 1.10,2013-01-26 08:00:00,
2013-01-26 03:15:00,10.3,4.0,29.96,NNW,327,0.0,2.0,77,0.00,,,0.00,weatherlink.com 1.10,2013-01-26 08:15:00,
2013-01-26 03:30:00,10.0,4.0,29.95,NW,308,0.0,3.0,76,0.00,,,0.00,weatherlink.com 1.10,2013-01-26 08:30:00,
2013-01-26 03:45:00,9.9,3.0,29.95,NE,44,0.0,3.0,74,0.00,,,0.00,weatherlink.com 1.10,2013-01-26 08:45:00,
2013-01-26 04:00:00,9.9,3.0,29.95,NW,317,0.0,4.0,73,0.00,,,0.00,weatherlink.com 1.10,2013-01-26 09:00:00,
2013-01-26 04:15:00,9.6,3.0,29.95,NNE,32,0.0,9.0,73,0.00,,,0.00,weatherlink.com 1.10,2013-01-26 09:15:00,
2013-01-26 04:30:00,9.5,3.0,29.95,North,11,0.0,7.0,73,0.00,,,0.00,weatherlink.com 1.10,2013-01-26 09:30:00,
2013-01-26 04:45:00,9.4,2.0,29.95,NW,306,0.0,3.0,73,0.00,,,0.00,weatherlink.com 1.10,2013-01-26 09:45:00,
2013-01-26 05:00:00,9.0,2.0,29.95,North,355,0.0,4.0,73,0.00,,,0.00,weatherlink.com 1.10,2013-01-26 10:00:00,
2013-01-26 05:15:00,8.9,2.0,29.95,NW,310,0.0,4.0,72,0.00,,,0.00,weatherlink.com 1.10,2013-01-26 10:15:00,
2013-01-26 05:30:00,8.6,1.0,29.95,NNW,336,0.0,3.0,72,0.00,,,0.00,weatherlink.com 1.10,2013-01-26 10:30:00,
2013-01-26 05:45:00,8.6,1.0,29.96,NNW,344,0.0,2.0,71,0.00,,,0.00,weatherlink.com 1.10,2013-01-26 10:45:00,
2013-01-26 06:00:00,8.4,1.0,29.96,NNW,344,0.0,1.0,71,0.00,,,0.00,weatherlink.com 1.10,2013-01-26 11:00:00,
2013-01-26 06:15:00,8.3,1.0,29.96,North,9,2.0,5.0,72,0.00,,,0.00,weatherlink.com 1.10,2013-01-26 11:15:00,
2013-01-26 06:30:00,8.4,1.0,29.97,North,360,3.0,7.0,71,0.00,,,0.00,weatherlink.com 1.10,2013-01-26 11:30:00,
2013-01-26 06:45:00,8.3,1.0,29.98,NNW,329,3.0,7.0,71,0.00,,,0.00,weatherlink.com 1.10,2013-01-26 11:45:00,
2013-01-26 07:00:00,7.8,1.0,29.98,NNE,13,3.0,9.0,73,0.00,,,0.00,weatherlink.com 1.10,2013-01-26 12:00:00,
2013-01-26 07:15:00,7.8,1.0,29.98,North,360,0.0,10.0,73,0.00,,,0.00,weatherlink.com 1.10,2013-01-26 12:15:00,
2013-01-26 07:30:00,7.6,1.0,29.99,NNE,22,0.0,9.0,74,0.00,,,0.00,weatherlink.com 1.10,2013-01-26 12:30:00,
2013-01-26 07:46:00,7.7,1.0,29.99,WSW,242,0.0,5.0,74,0.00,,,0.00,weatherlink.com 1.10,2013-01-26 12:46:00,
2013-01-26 08:01:00,8.1,1.0,30.00,NE,40,1.0,4.0,73,0.00,,,0.00,weatherlink.com 1.10,2013-01-26 13:01:00,
2013-01-26 08:16:00,9.0,2.0,30.00,North,360,2.0,6.0,72,0.00,,,0.00,weatherlink.com 1.10,2013-01-26 13:16:00,
2013-01-26 08:31:00,9.8,2.0,30.00,North,355,2.0,12.0,69,0.00,,,0.00,weatherlink.com 1.10,2013-01-26 13:31:00,
2013-01-26 08:46:00,10.3,1.0,30.00,NNW,330,4.0,8.0,67,0.00,,,0.00,weatherlink.com 1.10,2013-01-26 13:46:00,
2013-01-26 09:01:00,11.2,2.0,30.00,NW,304,2.0,3.0,66,0.00,,,0.00,weatherlink.com 1.10,2013-01-26 14:01:00,
2013-01-26 09:16:00,11.6,1.0,30.01,NNE,15,4.0,9.0,63,0.00,,,0.00,weatherlink.com 1.10,2013-01-26 14:16:00,
2013-01-26 09:31:00,11.8,1.0,30.01,NNW,341,4.0,9.0,62,0.00,,,0.00,weatherlink.com 1.10,2013-01-26 14:31:00,
2013-01-26 09:46:00,12.9,1.0,30.01,West,259,0.0,9.0,60,0.00,,,0.00,weatherlink.com 1.10,2013-01-26 14:46:00,
2013-01-26 10:01:00,13.2,0.0,30.02,NNW,333,9.0,9.0,57,0.00,,,0.00,weatherlink.com 1.10,2013-01-26 15:01:00,
2013-01-26 10:31:00,14.5,0.0,30.01,NNE,19,4.0,11.0,53,0.00,,,0.00,weatherlink.com 1.10,2013-01-26 15:31:00,
2013-01-26 10:46:00,14.8,0.0,30.01,WNW,290,4.0,10.0,52,0.00,,,0.00,weatherlink.com 1.10,2013-01-26 15:46:00,
2013-01-26 11:01:00,15.3,0.0,30.00,WSW,257,1.0,10.0,51,0.00,,,0.00,weatherlink.com 1.10,2013-01-26 16:01:00,
2013-01-26 11:16:00,15.6,-1.0,30.00,WSW,246,2.0,11.0,49,0.00,,,0.00,weatherlink.com 1.10,2013-01-26 16:16:00,
2013-01-26 11:31:00,16.2,-1.0,29.99,NW,310,3.0,9.0,47,0.00,,,0.00,weatherlink.com 1.10,2013-01-26 16:31:00,
2013-01-26 11:46:00,16.3,-1.0,29.99,East,83,2.0,12.0,46,0.00,,,0.00,weatherlink.com 1.10,2013-01-26 16:46:00,
2013-01-26 12:01:00,16.3,-2.0,29.98,West,279,10.0,11.0,45,0.00,,,0.00,weatherlink.com 1.10,2013-01-26 17:01:00,
2013-01-26 12:16:00,16.6,-1.0,29.98,NW,323,5.0,8.0,45,0.00,,,0.00,weatherlink.com 1.10,2013-01-26 17:16:00,
2013-01-26 12:31:00,17.0,-2.0,29.98,North,360,3.0,9.0,43,0.00,,,0.00,weatherlink.com 1.10,2013-01-26 17:31:00,
2013-01-26 12:46:00,17.5,-2.0,29.98,WSW,254,5.0,9.0,43,0.00,,,0.00,weatherlink.com 1.10,2013-01-26 17:46:00,
2013-01-26 13:01:00,17.4,-2.0,29.98,NW,317,10.0,12.0,42,0.00,,,0.00,weatherlink.com 1.10,2013-01-26 18:01:00,
2013-01-26 13:17:00,17.5,-2.0,29.98,WNW,299,6.0,12.0,42,0.00,,,0.00,weatherlink.com 1.10,2013-01-26 18:17:00,
2013-01-26 13:32:00,17.6,-2.0,29.98,North,360,7.0,16.0,42,0.00,,,0.00,weatherlink.com 1.10,2013-01-26 18:32:00,
2013-01-26 13:47:00,17.5,-3.0,29.98,NNW,331,11.0,15.0,41,0.00,,,0.00,weatherlink.com 1.10,2013-01-26 18:47:00,
2013-01-26 14:02:00,17.8,-2.0,29.99,NNE,20,6.0,14.0,41,0.00,,,0.00,weatherlink.com 1.10,2013-01-26 19:02:00,
2013-01-26 14:17:00,17.9,-2.0,29.99,NW,325,5.0,12.0,42,0.00,,,0.00,weatherlink.com 1.10,2013-01-26 19:17:00,
2013-01-26 14:32:00,18.6,-2.0,29.99,North,360,5.0,14.0,40,0.00,,,0.00,weatherlink.com 1.10,2013-01-26 19:32:00,
2013-01-26 14:47:00,18.4,-3.0,30.00,North,360,13.0,22.0,39,0.00,,,0.00,weatherlink.com 1.10,2013-01-26 19:47:00,
2013-01-26 15:02:00,18.2,-3.0,30.01,North,360,7.0,15.0,40,0.00,,,0.00,weatherlink.com 1.10,2013-01-26 20:02:00,
2013-01-26 15:17:00,17.5,-4.0,30.02,North,355,6.0,10.0,39,0.00,,,0.00,weatherlink.com 1.10,2013-01-26 20:17:00,
2013-01-26 15:32:00,17.0,-4.0,30.02,NW,318,0.0,27.0,40,0.00,,,0.00,weatherlink.com 1.10,2013-01-26 20:32:00,
2013-01-26 15:47:00,16.8,-4.0,30.02,North,360,7.0,14.0,40,0.00,,,0.00,weatherlink.com 1.10,2013-01-26 20:47:00,
2013-01-26 16:02:00,16.8,-3.0,30.03,NNE,18,4.0,13.0,42,0.00,,,0.00,weatherlink.com 1.10,2013-01-26 21:02:00,
2013-01-26 16:17:00,16.6,-3.0,30.03,NE,44,7.0,19.0,42,0.00,,,0.00,weatherlink.com 1.10,2013-01-26 21:17:00,
2013-01-26 16:33:00,16.5,-4.0,30.05,NNW,337,5.0,15.0,41,0.00,,,0.00,weatherlink.com 1.10,2013-01-26 21:33:00,
2013-01-26 16:48:00,16.3,-3.0,30.05,North,360,2.0,13.0,42,0.00,,,0.00,weatherlink.com 1.10,2013-01-26 21:48:00,
2013-01-26 17:03:00,15.8,-5.0,30.05,NW,321,4.0,8.0,40,0.00,,,0.00,weatherlink.com 1.10,2013-01-26 22:03:00,
2013-01-26 17:18:00,15.1,-6.0,30.06,NE,50,4.0,11.0,39,0.00,,,0.00,weatherlink.com 1.10,2013-01-26 22:18:00,
2013-01-26 17:33:00,14.3,-6.0,30.08,NNW,336,6.0,16.0,40,0.00,,,0.00,weatherlink.com 1.10,2013-01-26 22:33:00,
2013-01-26 17:49:00,13.7,-6.0,30.08,North,360,5.0,16.0,42,0.00,,,0.00,weatherlink.com 1.10,2013-01-26 22:49:00,
2013-01-26 18:18:00,13.0,-3.0,30.09,NE,36,3.0,20.0,49,0.00,,,0.00,weatherlink.com 1.10,2013-01-26 23:18:00,
2013-01-26 18:33:00,12.7,-3.0,30.09,NNW,327,11.0,11.0,50,0.00,,,0.00,weatherlink.com 1.10,2013-01-26 23:33:00,
2013-01-26 18:48:00,12.5,-2.0,30.10,NNE,19,5.0,15.0,53,0.00,,,0.00,weatherlink.com 1.10,2013-01-26 23:48:00,
2013-01-26 19:03:00,12.3,-1.0,30.10,NE,52,5.0,15.0,55,0.00,,,0.00,weatherlink.com 1.10,2013-01-27 00:03:00,
2013-01-26 19:18:00,11.9,-1.0,30.09,North,11,4.0,10.0,56,0.00,,,0.00,weatherlink.com 1.10,2013-01-27 00:18:00,
2013-01-26 19:33:00,11.8,-1.0,30.10,North,355,6.0,15.0,57,0.00,,,0.00,weatherlink.com 1.10,2013-01-27 00:33:00,
2013-01-26 19:48:00,11.7,-1.0,30.10,NE,56,11.0,14.0,58,0.00,,,0.00,weatherlink.com 1.10,2013-01-27 00:48:00,
2013-01-26 20:04:00,11.5,0.0,30.10,NNW,342,4.0,8.0,60,0.00,,,0.00,weatherlink.com 1.10,2013-01-27 01:04:00,
2013-01-26 20:19:00,11.6,0.0,30.10,North,5,4.0,13.0,61,0.00,,,0.00,weatherlink.com 1.10,2013-01-27 01:19:00,
2013-01-26 20:34:00,11.6,1.0,30.11,NE,54,7.0,14.0,63,0.00,,,0.00,weatherlink.com 1.10,2013-01-27 01:34:00,
2013-01-26 20:49:00,11.8,1.0,30.11,NNE,26,5.0,19.0,63,0.00,,,0.00,weatherlink.com 1.10,2013-01-27 01:49:00,
2013-01-26 21:04:00,11.6,2.0,30.11,North,355,5.0,17.0,64,0.00,,,0.00,weatherlink.com 1.10,2013-01-27 02:04:00,
2013-01-26 21:19:00,11.5,2.0,30.11,NNW,331,0.0,10.0,65,0.00,,,0.00,weatherlink.com 1.10,2013-01-27 02:19:00,
2013-01-26 21:34:00,11.5,2.0,30.11,North,360,0.0,13.0,65,0.00,,,0.00,weatherlink.com 1.10,2013-01-27 02:34:00,
2013-01-26 21:49:00,11.3,2.0,30.11,North,350,1.0,8.0,66,0.00,,,0.00,weatherlink.com 1.10,2013-01-27 02:49:00,
2013-01-26 22:04:00,11.4,2.0,30.12,NNE,17,2.0,8.0,67,0.00,,,0.00,weatherlink.com 1.10,2013-01-27 03:04:00,
2013-01-26 22:19:00,11.5,2.0,30.12,North,350,4.0,13.0,67,0.00,,,0.00,weatherlink.com 1.10,2013-01-27 03:19:00,
2013-01-26 22:34:00,11.7,3.0,30.13,North,360,3.0,12.0,67,0.00,,,0.00,weatherlink.com 1.10,2013-01-27 03:34:00,
2013-01-26 22:49:00,11.6,3.0,30.14,NNW,333,9.0,9.0,67,0.00,,,0.00,weatherlink.com 1.10,2013-01-27 03:49:00,
2013-01-26 23:04:00,11.7,3.0,30.14,NNW,337,2.0,9.0,67,0.00,,,0.00,weatherlink.com 1.10,2013-01-27 04:04:00,
2013-01-26 23:20:00,11.8,3.0,30.14,NNW,334,8.0,16.0,67,0.00,,,0.00,weatherlink.com 1.10,2013-01-27 04:20:00,
2013-01-26 23:35:00,11.9,3.0,30.14,NNE,29,4.0,20.0,67,0.00,,,0.00,weatherlink.com 1.10,2013-01-27 04:35:00,
2013-01-26 23:50:00,11.8,3.0,30.14,NNW,346,2.0,12.0,67,0.00,,,0.00,weatherlink.com 1.10,2013-01-27 04:50:00,